createdAt,value
2022-12-25T00:02:18.043Z,15.05
2022-12-25T00:07:21.006Z,15.36
2022-12-25T00:12:23.868Z,15.67
2022-12-25T00:17:28.540Z,15.70
2022-12-25T00:22:32.083Z,15.19
2022-12-25T00:27:35.041Z,15.01
2022-12-25T00:32:39.544Z,14.84
2022-12-25T00:37:42.393Z,14.61
2022-12-25T00:42:45.699Z,14.44
2022-12-25T00:47:50.263Z,14.39
2022-12-25T00:52:53.134Z,14.24
2022-12-25T00:57:56.003Z,14.09
2022-12-25T01:03:00.765Z,14.12
2022-12-25T01:08:03.966Z,13.88
2022-12-25T01:13:06.802Z,14.41
2022-12-25T01:18:15.465Z,14.89
2022-12-25T01:23:18.375Z,15.53
2022-12-25T01:28:21.229Z,15.66
2022-12-25T01:33:25.750Z,15.82
2022-12-25T01:38:28.802Z,15.71
2022-12-25T01:43:32.501Z,14.79
2022-12-25T01:48:37.817Z,14.63
2022-12-25T01:53:40.724Z,14.89
2022-12-25T01:58:43.799Z,14.90
2022-12-25T02:03:48.341Z,14.56
2022-12-25T02:08:51.217Z,14.06
2022-12-25T02:13:54.635Z,13.99
2022-12-25T02:19:02.899Z,14.26
2022-12-25T02:24:13.935Z,14.13
2022-12-25T02:29:33.405Z,13.84
2022-12-25T02:34:38.193Z,14.00
2022-12-25T02:39:47.313Z,14.60
2022-12-25T02:44:52.754Z,14.48
2022-12-25T02:49:57.057Z,14.92
2022-12-25T02:55:03.757Z,14.63
2022-12-25T03:00:09.902Z,14.52
2022-12-25T03:05:14.320Z,14.69
2022-12-25T03:10:17.923Z,14.76
2022-12-25T03:15:22.758Z,14.65
2022-12-25T03:20:25.923Z,14.82
2022-12-25T03:25:29.176Z,14.36
2022-12-25T03:30:38.207Z,14.41
2022-12-25T03:35:45.989Z,13.99
2022-12-25T03:40:55.301Z,13.88
2022-12-25T03:46:03.463Z,14.69
2022-12-25T03:51:10.710Z,14.99
2022-12-25T03:56:14.380Z,15.24
2022-12-25T04:01:18.943Z,14.91
2022-12-25T04:06:21.952Z,14.70
2022-12-25T04:11:24.830Z,14.80
2022-12-25T04:16:29.402Z,14.62
2022-12-25T04:21:32.270Z,14.51
2022-12-25T04:26:35.829Z,14.47
2022-12-25T04:31:40.569Z,14.57
2022-12-25T04:36:43.455Z,14.92
2022-12-25T04:41:46.299Z,14.74
2022-12-25T04:46:51.026Z,14.83
2022-12-25T04:51:53.967Z,15.04
2022-12-25T04:56:57.551Z,15.39
2022-12-25T05:02:02.130Z,15.32
2022-12-25T05:07:05.027Z,14.81
2022-12-25T05:12:07.897Z,14.60
2022-12-25T05:17:12.421Z,14.25
2022-12-25T05:22:15.324Z,13.36
2022-12-25T05:27:18.172Z,13.27
2022-12-25T05:32:22.726Z,13.96
2022-12-25T05:37:25.612Z,13.99
2022-12-25T05:42:28.470Z,13.48
2022-12-25T05:47:33.098Z,12.81
2022-12-25T05:52:36.215Z,12.63
2022-12-25T05:57:39.074Z,12.30
2022-12-25T06:02:43.809Z,12.04
2022-12-25T06:07:46.759Z,12.08
2022-12-25T06:12:49.722Z,12.05
2022-12-25T06:18:00.642Z,12.17
2022-12-25T06:23:03.915Z,12.22
2022-12-25T06:28:07.122Z,12.10
2022-12-25T06:33:12.652Z,11.95
2022-12-25T06:38:15.531Z,11.83
2022-12-25T06:43:18.377Z,11.89
2022-12-25T06:48:22.961Z,11.89
2022-12-25T06:53:25.871Z,12.13
2022-12-25T06:58:29.569Z,12.31
2022-12-25T07:03:38.006Z,12.27
2022-12-25T07:08:41.295Z,12.20
2022-12-25T07:13:44.723Z,12.07
2022-12-25T07:18:49.318Z,12.16
2022-12-25T07:23:52.214Z,12.07
2022-12-25T07:28:56.047Z,11.66
2022-12-25T07:34:00.552Z,11.63
2022-12-25T07:39:03.447Z,11.49
2022-12-25T07:44:06.408Z,11.46
2022-12-25T07:49:11.299Z,11.46
2022-12-25T07:54:14.179Z,11.45
2022-12-25T07:59:17.074Z,11.37
2022-12-25T08:04:21.639Z,11.60
2022-12-25T08:09:24.651Z,11.69
2022-12-25T08:14:27.620Z,11.45
2022-12-25T08:19:32.137Z,11.11
2022-12-25T08:24:35.019Z,11.13
2022-12-25T08:29:37.895Z,11.28
2022-12-25T08:34:42.456Z,11.11
2022-12-25T08:39:45.279Z,10.98
2022-12-25T08:44:48.860Z,10.92
2022-12-25T08:49:53.408Z,10.96
2022-12-25T08:54:56.418Z,11.03
2022-12-25T08:59:59.243Z,10.83
2022-12-25T09:05:03.816Z,10.63
2022-12-25T09:10:07.345Z,10.63
2022-12-25T09:15:10.773Z,10.63
2022-12-25T09:20:15.330Z,10.63
2022-12-25T09:25:18.942Z,10.57
2022-12-25T09:30:21.821Z,10.55
2022-12-25T09:35:26.380Z,10.59
2022-12-25T09:40:30.619Z,10.56
2022-12-25T09:45:36.046Z,10.52
2022-12-25T09:50:43.262Z,10.46
2022-12-25T09:55:49.481Z,10.57
2022-12-25T10:00:59.293Z,10.36
2022-12-25T10:06:12.295Z,10.13
2022-12-25T10:11:21.516Z,10.07
2022-12-25T10:16:28.170Z,10.00
2022-12-25T10:21:33.317Z,10.06
2022-12-25T10:26:36.205Z,10.07
2022-12-25T10:31:39.122Z,10.02
2022-12-25T10:36:44.668Z,10.03
2022-12-25T10:42:00.950Z,10.03
2022-12-25T10:47:04.831Z,10.04
2022-12-25T10:52:20.371Z,10.04
2022-12-25T10:57:24.669Z,9.97
2022-12-25T11:02:28.856Z,9.84
2022-12-25T11:07:35.919Z,9.82
2022-12-25T11:12:43.088Z,9.86
2022-12-25T11:17:49.495Z,9.87
2022-12-25T11:22:54.165Z,9.98
2022-12-25T11:27:57.832Z,9.77
2022-12-25T11:33:01.666Z,9.75
2022-12-25T11:38:06.157Z,9.71
2022-12-25T11:43:12.333Z,9.72
2022-12-25T11:48:17.891Z,9.62
2022-12-25T11:53:25.581Z,9.63
2022-12-25T11:58:29.954Z,9.42
2022-12-25T12:03:35.284Z,9.35
2022-12-25T12:08:40.173Z,9.36
2022-12-25T12:13:49.506Z,9.38
2022-12-25T12:18:52.383Z,9.31
2022-12-25T12:24:02.108Z,9.24
2022-12-25T12:29:06.482Z,9.27
2022-12-25T12:34:17.723Z,9.22
2022-12-25T12:39:26.174Z,9.29
2022-12-25T12:44:32.629Z,9.24
2022-12-25T12:49:35.462Z,9.06
2022-12-25T12:54:53.202Z,9.11
2022-12-25T12:59:58.981Z,9.11
2022-12-25T13:05:03.434Z,9.16
2022-12-25T13:10:14.196Z,9.07
2022-12-25T13:15:17.090Z,9.13
2022-12-25T13:20:24.538Z,9.06
2022-12-25T13:25:31.882Z,9.13
2022-12-25T13:30:34.807Z,9.02
2022-12-25T13:35:43.125Z,9.06
2022-12-25T13:40:57.253Z,8.98
2022-12-25T13:46:00.216Z,8.90
2022-12-25T13:51:03.324Z,8.85
2022-12-25T13:56:13.170Z,8.68
2022-12-25T14:01:17.166Z,8.82
2022-12-25T14:06:21.348Z,8.91
2022-12-25T14:11:26.575Z,8.93
2022-12-25T14:16:29.997Z,8.90
2022-12-25T14:21:34.387Z,8.83
2022-12-25T14:26:38.922Z,8.87
2022-12-25T14:31:42.015Z,8.97
2022-12-25T14:36:44.859Z,8.93
2022-12-25T14:41:52.760Z,8.89
2022-12-25T14:47:03.841Z,8.94
2022-12-25T14:52:10.745Z,8.98
2022-12-25T14:57:18.924Z,9.09
2022-12-25T15:02:21.982Z,8.97
2022-12-25T15:07:27.402Z,9.18
2022-12-25T15:12:32.851Z,9.21
2022-12-25T15:17:36.250Z,9.30
2022-12-25T15:23:02.134Z,9.11
2022-12-25T15:28:06.741Z,8.96
2022-12-25T15:33:15.237Z,8.90
2022-12-25T15:38:18.112Z,8.78
2022-12-25T15:43:40.462Z,8.80
2022-12-25T15:48:44.011Z,8.80
2022-12-25T15:53:46.891Z,8.82
2022-12-25T15:58:51.516Z,8.93
2022-12-25T16:03:54.514Z,9.02
2022-12-25T16:08:57.468Z,9.07
2022-12-25T16:14:01.992Z,9.22
2022-12-25T16:19:04.841Z,9.25
2022-12-25T16:24:07.913Z,9.34
2022-12-25T16:29:12.592Z,9.25
2022-12-25T16:34:15.459Z,9.35
2022-12-25T16:39:18.295Z,9.50
2022-12-25T16:44:22.836Z,9.75
2022-12-25T16:49:25.713Z,10.12
2022-12-25T16:54:28.675Z,10.36
2022-12-25T16:59:33.290Z,10.66
2022-12-25T17:04:36.210Z,11.88
2022-12-25T17:09:44.021Z,11.89
2022-12-25T17:14:48.737Z,12.22
2022-12-25T17:19:51.578Z,12.39
2022-12-25T17:24:54.420Z,12.19
2022-12-25T17:29:59.601Z,12.36
2022-12-25T17:35:02.449Z,12.45
2022-12-25T17:40:05.573Z,12.76
2022-12-25T17:45:10.877Z,12.84
2022-12-25T17:50:13.730Z,12.93
2022-12-25T17:55:16.663Z,13.10
2022-12-25T18:00:21.613Z,13.86
2022-12-25T18:05:24.470Z,14.76
2022-12-25T18:10:27.374Z,15.15
2022-12-25T18:15:32.152Z,15.10
2022-12-25T18:20:39.912Z,15.48
2022-12-25T18:25:43.441Z,15.48
2022-12-25T18:30:48.359Z,15.51
2022-12-25T18:35:51.263Z,15.84
2022-12-25T18:40:54.163Z,15.80
2022-12-25T18:45:59.714Z,15.91
2022-12-25T18:51:03.587Z,16.00
2022-12-25T19:01:52.548Z,16.11
2022-12-25T19:06:55.604Z,16.43
2022-12-25T19:11:58.452Z,16.52
2022-12-25T19:17:04.291Z,16.19
2022-12-25T19:22:07.854Z,16.36
2022-12-25T19:27:11.562Z,16.71
2022-12-25T19:32:16.141Z,16.38
2022-12-25T19:37:19.036Z,16.27
2022-12-25T19:42:21.939Z,16.70
2022-12-25T19:47:26.466Z,16.66
2022-12-25T19:52:29.351Z,16.85
2022-12-25T19:57:32.227Z,17.12
2022-12-25T20:02:36.838Z,16.76
2022-12-25T20:07:39.787Z,16.57
2022-12-25T20:12:42.646Z,16.65
2022-12-25T20:17:48.538Z,16.85
2022-12-25T20:22:51.391Z,16.64
2022-12-25T20:27:55.042Z,16.36
2022-12-25T20:32:59.548Z,15.95
2022-12-25T20:38:02.438Z,15.46
2022-12-25T20:43:05.285Z,15.52
2022-12-25T20:48:09.785Z,15.63
2022-12-25T20:53:12.623Z,15.66
2022-12-25T20:58:16.051Z,15.44
2022-12-25T21:03:21.179Z,15.28
2022-12-25T21:08:25.632Z,16.08
2022-12-25T21:13:29.681Z,16.61
2022-12-25T21:18:34.250Z,16.88
2022-12-25T21:23:37.827Z,16.73
2022-12-25T21:28:40.753Z,16.90
2022-12-25T21:33:45.322Z,17.02
2022-12-25T21:38:48.245Z,17.02
2022-12-25T21:43:51.616Z,17.12
2022-12-25T21:48:56.632Z,16.91
2022-12-25T21:53:59.636Z,16.92
2022-12-25T21:59:03.559Z,17.03
2022-12-25T22:04:08.875Z,17.26
2022-12-25T22:09:11.770Z,17.74
2022-12-25T22:14:15.901Z,17.37
2022-12-25T22:19:20.418Z,17.67
2022-12-25T22:24:23.258Z,17.96
2022-12-25T22:29:26.114Z,17.92
2022-12-25T22:34:30.726Z,17.35
2022-12-25T22:39:33.694Z,16.99
2022-12-25T22:44:36.629Z,16.54
2022-12-25T22:49:41.172Z,16.43
2022-12-25T22:54:44.013Z,16.48
2022-12-25T22:59:46.923Z,16.36
2022-12-25T23:04:51.486Z,16.21
2022-12-25T23:09:54.347Z,16.01
2022-12-25T23:14:57.370Z,15.82
2022-12-25T23:20:02.007Z,15.57
2022-12-25T23:25:10.799Z,15.17
2022-12-25T23:30:15.424Z,15.01
2022-12-25T23:35:19.974Z,14.76
2022-12-25T23:40:22.870Z,14.64
2022-12-25T23:45:25.737Z,14.63
2022-12-25T23:50:30.267Z,14.71
2022-12-25T23:55:34.292Z,14.74
